sensor_id;sensor_type;location;lat;lon;timestamp;temperature;humidity
28677;DHT22;15858;48.338;11.078;2022-10-28T00:01:16;11.20;99.90
28677;DHT22;15858;48.338;11.078;2022-10-28T00:03:46;11.10;99.90
28677;DHT22;15858;48.338;11.078;2022-10-28T00:06:15;11.00;99.90
28677;DHT22;15858;48.338;11.078;2022-10-28T00:08:42;11.00;99.90
28677;DHT22;15858;48.338;11.078;2022-10-28T00:11:21;11.10;99.90
28677;DHT22;15858;48.338;11.078;2022-10-28T00:13:48;11.10;99.90
28677;DHT22;15858;48.338;11.078;2022-10-28T00:16:18;11.10;99.90
28677;DHT22;15858;48.338;11.078;2022-10-28T00:18:45;11.10;99.90
28677;DHT22;15858;48.338;11.078;2022-10-28T00:21:18;11.10;99.90
28677;DHT22;15858;48.338;11.078;2022-10-28T00:23:45;11.10;99.90
28677;DHT22;15858;48.338;11.078;2022-10-28T00:26:18;11.10;99.90
28677;DHT22;15858;48.338;11.078;2022-10-28T00:28:59;11.00;99.90
28677;DHT22;15858;48.338;11.078;2022-10-28T00:31:27;11.00;99.90
28677;DHT22;15858;48.338;11.078;2022-10-28T00:33:55;10.90;99.90
28677;DHT22;15858;48.338;11.078;2022-10-28T00:36:24;10.90;99.90
28677;DHT22;15858;48.338;11.078;2022-10-28T00:38:53;10.90;99.90
28677;DHT22;15858;48.338;11.078;2022-10-28T00:41:29;10.90;99.90
28677;DHT22;15858;48.338;11.078;2022-10-28T00:44:02;10.90;99.90
28677;DHT22;15858;48.338;11.078;2022-10-28T00:46:49;10.80;99.90
28677;DHT22;15858;48.338;11.078;2022-10-28T00:49:19;10.80;99.90
28677;DHT22;15858;48.338;11.078;2022-10-28T00:51:51;10.80;99.90
28677;DHT22;15858;48.338;11.078;2022-10-28T00:54:19;10.80;99.90
28677;DHT22;15858;48.338;11.078;2022-10-28T00:56:50;10.80;99.90
28677;DHT22;15858;48.338;11.078;2022-10-28T00:59:30;10.80;99.90
28677;DHT22;15858;48.338;11.078;2022-10-28T01:01:58;10.80;99.90
28677;DHT22;15858;48.338;11.078;2022-10-28T01:04:25;10.80;99.90
28677;DHT22;15858;48.338;11.078;2022-10-28T01:06:52;10.80;99.90
28677;DHT22;15858;48.338;11.078;2022-10-28T01:09:18;10.80;99.90
28677;DHT22;15858;48.338;11.078;2022-10-28T01:14:52;10.70;99.90
28677;DHT22;15858;48.338;11.078;2022-10-28T01:40:03;10.60;99.90
28677;DHT22;15858;48.338;11.078;2022-10-28T01:42:41;10.60;99.90
28677;DHT22;15858;48.338;11.078;2022-10-28T01:45:17;10.50;99.90
28677;DHT22;15858;48.338;11.078;2022-10-28T01:47:58;10.50;99.90
28677;DHT22;15858;48.338;11.078;2022-10-28T01:50:39;10.50;99.90
28677;DHT22;15858;48.338;11.078;2022-10-28T01:53:14;10.50;99.90
28677;DHT22;15858;48.338;11.078;2022-10-28T01:55:45;10.50;99.90
28677;DHT22;15858;48.338;11.078;2022-10-28T01:58:17;10.40;99.90
28677;DHT22;15858;48.338;11.078;2022-10-28T02:00:45;10.50;99.90
28677;DHT22;15858;48.338;11.078;2022-10-28T02:03:12;10.40;99.90
28677;DHT22;15858;48.338;11.078;2022-10-28T02:10:55;10.50;99.90
28677;DHT22;15858;48.338;11.078;2022-10-28T02:13:36;10.50;99.90
28677;DHT22;15858;48.338;11.078;2022-10-28T02:19:46;10.50;99.90
28677;DHT22;15858;48.338;11.078;2022-10-28T02:24:51;10.50;99.90
28677;DHT22;15858;48.338;11.078;2022-10-28T02:30:04;10.40;99.90
28677;DHT22;15858;48.338;11.078;2022-10-28T02:32:36;10.40;99.90
28677;DHT22;15858;48.338;11.078;2022-10-28T02:35:07;10.40;99.90
28677;DHT22;15858;48.338;11.078;2022-10-28T02:37:37;10.40;99.90
28677;DHT22;15858;48.338;11.078;2022-10-28T02:40:08;10.40;99.90
28677;DHT22;15858;48.338;11.078;2022-10-28T02:42:42;10.30;99.90
28677;DHT22;15858;48.338;11.078;2022-10-28T02:45:17;10.30;99.90
28677;DHT22;15858;48.338;11.078;2022-10-28T02:47:49;10.30;99.90
28677;DHT22;15858;48.338;11.078;2022-10-28T02:50:20;10.20;99.90
28677;DHT22;15858;48.338;11.078;2022-10-28T02:52:50;10.20;99.90
28677;DHT22;15858;48.338;11.078;2022-10-28T02:55:23;10.20;99.90
28677;DHT22;15858;48.338;11.078;2022-10-28T02:57:53;10.20;99.90
28677;DHT22;15858;48.338;11.078;2022-10-28T03:00:21;10.20;99.90
28677;DHT22;15858;48.338;11.078;2022-10-28T03:02:48;10.10;99.90
28677;DHT22;15858;48.338;11.078;2022-10-28T03:05:14;10.10;99.90
28677;DHT22;15858;48.338;11.078;2022-10-28T03:07:41;10.10;99.90
28677;DHT22;15858;48.338;11.078;2022-10-28T03:10:09;10.10;99.90
28677;DHT22;15858;48.338;11.078;2022-10-28T03:12:35;10.10;99.90
28677;DHT22;15858;48.338;11.078;2022-10-28T03:15:02;10.10;99.90
28677;DHT22;15858;48.338;11.078;2022-10-28T03:17:29;10.10;99.90
28677;DHT22;15858;48.338;11.078;2022-10-28T03:19:56;10.10;99.90
28677;DHT22;15858;48.338;11.078;2022-10-28T03:22:23;10.00;99.90
28677;DHT22;15858;48.338;11.078;2022-10-28T03:24:49;10.00;99.90
28677;DHT22;15858;48.338;11.078;2022-10-28T03:27:16;10.00;99.90
28677;DHT22;15858;48.338;11.078;2022-10-28T03:29:42;9.90;99.90
28677;DHT22;15858;48.338;11.078;2022-10-28T03:32:12;10.00;99.90
28677;DHT22;15858;48.338;11.078;2022-10-28T03:34:38;9.90;99.90
28677;DHT22;15858;48.338;11.078;2022-10-28T03:37:05;9.90;99.90
28677;DHT22;15858;48.338;11.078;2022-10-28T03:39:32;9.90;99.90
28677;DHT22;15858;48.338;11.078;2022-10-28T03:41:58;9.90;99.90
28677;DHT22;15858;48.338;11.078;2022-10-28T03:44:25;9.90;99.90
28677;DHT22;15858;48.338;11.078;2022-10-28T03:46:51;9.90;99.90
28677;DHT22;15858;48.338;11.078;2022-10-28T03:49:18;9.80;99.90
28677;DHT22;15858;48.338;11.078;2022-10-28T03:51:44;9.80;99.90
28677;DHT22;15858;48.338;11.078;2022-10-28T03:54:11;9.80;99.90
28677;DHT22;15858;48.338;11.078;2022-10-28T03:56:38;9.80;99.90
28677;DHT22;15858;48.338;11.078;2022-10-28T03:59:05;9.80;99.90
28677;DHT22;15858;48.338;11.078;2022-10-28T04:01:31;9.80;99.90
28677;DHT22;15858;48.338;11.078;2022-10-28T04:03:58;9.80;99.90
28677;DHT22;15858;48.338;11.078;2022-10-28T04:06:25;9.70;99.90
28677;DHT22;15858;48.338;11.078;2022-10-28T04:08:51;9.80;99.90
28677;DHT22;15858;48.338;11.078;2022-10-28T04:11:18;9.70;99.90
28677;DHT22;15858;48.338;11.078;2022-10-28T04:13:44;9.70;99.90
28677;DHT22;15858;48.338;11.078;2022-10-28T04:16:11;9.70;99.90
28677;DHT22;15858;48.338;11.078;2022-10-28T04:18:37;9.70;99.90
28677;DHT22;15858;48.338;11.078;2022-10-28T04:21:04;9.70;99.90
28677;DHT22;15858;48.338;11.078;2022-10-28T04:23:31;9.70;99.90
28677;DHT22;15858;48.338;11.078;2022-10-28T04:25:58;9.70;99.90
28677;DHT22;15858;48.338;11.078;2022-10-28T04:28:24;9.60;99.90
28677;DHT22;15858;48.338;11.078;2022-10-28T04:30:51;9.60;99.90
28677;DHT22;15858;48.338;11.078;2022-10-28T04:33:17;9.60;99.90
28677;DHT22;15858;48.338;11.078;2022-10-28T04:35:44;9.60;99.90
28677;DHT22;15858;48.338;11.078;2022-10-28T04:38:13;9.60;99.90
28677;DHT22;15858;48.338;11.078;2022-10-28T04:40:40;9.60;99.90
28677;DHT22;15858;48.338;11.078;2022-10-28T04:43:06;9.50;99.90
28677;DHT22;15858;48.338;11.078;2022-10-28T04:45:36;9.60;99.90
28677;DHT22;15858;48.338;11.078;2022-10-28T04:48:03;9.50;99.90
28677;DHT22;15858;48.338;11.078;2022-10-28T04:50:29;9.50;99.90
28677;DHT22;15858;48.338;11.078;2022-10-28T04:52:56;9.50;99.90
28677;DHT22;15858;48.338;11.078;2022-10-28T04:55:23;9.50;99.90
28677;DHT22;15858;48.338;11.078;2022-10-28T04:57:57;9.50;99.90
28677;DHT22;15858;48.338;11.078;2022-10-28T05:00:25;9.50;99.90
28677;DHT22;15858;48.338;11.078;2022-10-28T05:02:52;9.50;99.90
28677;DHT22;15858;48.338;11.078;2022-10-28T05:05:19;9.40;99.90
28677;DHT22;15858;48.338;11.078;2022-10-28T05:07:46;9.50;99.90
28677;DHT22;15858;48.338;11.078;2022-10-28T05:10:13;9.40;99.90
28677;DHT22;15858;48.338;11.078;2022-10-28T05:12:46;9.40;99.90
28677;DHT22;15858;48.338;11.078;2022-10-28T05:15:13;9.40;99.90
28677;DHT22;15858;48.338;11.078;2022-10-28T05:17:44;9.40;99.90
28677;DHT22;15858;48.338;11.078;2022-10-28T05:20:13;9.40;99.90
28677;DHT22;15858;48.338;11.078;2022-10-28T05:22:47;9.40;99.90
28677;DHT22;15858;48.338;11.078;2022-10-28T05:25:14;9.40;99.90
28677;DHT22;15858;48.338;11.078;2022-10-28T05:27:41;9.40;99.90
28677;DHT22;15858;48.338;11.078;2022-10-28T05:30:08;9.40;99.90
28677;DHT22;15858;48.338;11.078;2022-10-28T05:32:35;9.40;99.90
28677;DHT22;15858;48.338;11.078;2022-10-28T05:35:02;9.40;99.90
28677;DHT22;15858;48.338;11.078;2022-10-28T05:37:29;9.40;99.90
28677;DHT22;15858;48.338;11.078;2022-10-28T05:39:55;9.40;99.90
28677;DHT22;15858;48.338;11.078;2022-10-28T05:42:22;9.40;99.90
28677;DHT22;15858;48.338;11.078;2022-10-28T05:44:48;9.40;99.90
28677;DHT22;15858;48.338;11.078;2022-10-28T05:47:15;9.30;99.90
28677;DHT22;15858;48.338;11.078;2022-10-28T05:49:42;9.30;99.90
28677;DHT22;15858;48.338;11.078;2022-10-28T05:52:08;9.30;99.90
28677;DHT22;15858;48.338;11.078;2022-10-28T05:54:35;9.40;99.90
28677;DHT22;15858;48.338;11.078;2022-10-28T05:57:01;9.30;99.90
28677;DHT22;15858;48.338;11.078;2022-10-28T05:59:28;9.30;99.90
28677;DHT22;15858;48.338;11.078;2022-10-28T06:01:55;9.30;99.90
28677;DHT22;15858;48.338;11.078;2022-10-28T06:04:21;9.30;99.90
28677;DHT22;15858;48.338;11.078;2022-10-28T06:06:48;9.30;99.90
28677;DHT22;15858;48.338;11.078;2022-10-28T06:09:15;9.30;99.90
28677;DHT22;15858;48.338;11.078;2022-10-28T06:11:41;9.30;99.90
28677;DHT22;15858;48.338;11.078;2022-10-28T06:14:08;9.30;99.90
28677;DHT22;15858;48.338;11.078;2022-10-28T06:16:34;9.30;99.90
28677;DHT22;15858;48.338;11.078;2022-10-28T06:19:01;9.40;99.90
28677;DHT22;15858;48.338;11.078;2022-10-28T06:21:28;9.40;99.90
28677;DHT22;15858;48.338;11.078;2022-10-28T06:23:54;9.40;99.90
28677;DHT22;15858;48.338;11.078;2022-10-28T06:26:21;9.40;99.90
28677;DHT22;15858;48.338;11.078;2022-10-28T06:28:48;9.40;99.90
28677;DHT22;15858;48.338;11.078;2022-10-28T06:31:14;9.50;99.90
28677;DHT22;15858;48.338;11.078;2022-10-28T06:33:41;9.50;99.90
28677;DHT22;15858;48.338;11.078;2022-10-28T06:36:08;9.50;99.90
28677;DHT22;15858;48.338;11.078;2022-10-28T06:38:34;9.60;99.90
28677;DHT22;15858;48.338;11.078;2022-10-28T06:41:01;9.60;99.90
28677;DHT22;15858;48.338;11.078;2022-10-28T06:43:28;9.70;99.90
28677;DHT22;15858;48.338;11.078;2022-10-28T06:45:54;9.70;99.90
28677;DHT22;15858;48.338;11.078;2022-10-28T06:48:21;9.80;99.90
28677;DHT22;15858;48.338;11.078;2022-10-28T06:50:48;9.90;99.90
28677;DHT22;15858;48.338;11.078;2022-10-28T06:53:15;9.90;99.90
28677;DHT22;15858;48.338;11.078;2022-10-28T06:55:42;10.10;99.90
28677;DHT22;15858;48.338;11.078;2022-10-28T06:58:08;10.10;99.90
28677;DHT22;15858;48.338;11.078;2022-10-28T07:00:35;10.20;99.90
28677;DHT22;15858;48.338;11.078;2022-10-28T07:03:02;10.30;99.90
28677;DHT22;15858;48.338;11.078;2022-10-28T07:05:28;10.40;99.90
28677;DHT22;15858;48.338;11.078;2022-10-28T07:07:55;10.50;99.90
28677;DHT22;15858;48.338;11.078;2022-10-28T07:10:22;10.60;99.90
28677;DHT22;15858;48.338;11.078;2022-10-28T07:12:51;10.80;99.90
28677;DHT22;15858;48.338;11.078;2022-10-28T07:15:18;11.00;99.90
28677;DHT22;15858;48.338;11.078;2022-10-28T07:17:54;11.10;99.90
28677;DHT22;15858;48.338;11.078;2022-10-28T07:20:22;11.10;99.90
28677;DHT22;15858;48.338;11.078;2022-10-28T07:22:55;11.10;99.90
28677;DHT22;15858;48.338;11.078;2022-10-28T07:25:22;11.20;99.90
28677;DHT22;15858;48.338;11.078;2022-10-28T07:27:48;11.20;99.90
28677;DHT22;15858;48.338;11.078;2022-10-28T07:30:15;11.30;99.90
28677;DHT22;15858;48.338;11.078;2022-10-28T07:32:42;11.40;99.90
28677;DHT22;15858;48.338;11.078;2022-10-28T07:35:08;11.50;99.90
28677;DHT22;15858;48.338;11.078;2022-10-28T07:37:37;11.60;99.90
28677;DHT22;15858;48.338;11.078;2022-10-28T07:40:05;11.60;99.90
28677;DHT22;15858;48.338;11.078;2022-10-28T07:42:34;11.70;99.90
28677;DHT22;15858;48.338;11.078;2022-10-28T07:45:02;11.70;99.90
28677;DHT22;15858;48.338;11.078;2022-10-28T07:47:29;11.80;99.90
28677;DHT22;15858;48.338;11.078;2022-10-28T07:49:55;11.80;99.90
28677;DHT22;15858;48.338;11.078;2022-10-28T07:52:22;11.90;99.90
28677;DHT22;15858;48.338;11.078;2022-10-28T07:54:49;11.90;99.90
28677;DHT22;15858;48.338;11.078;2022-10-28T07:57:16;12.00;99.90
28677;DHT22;15858;48.338;11.078;2022-10-28T07:59:43;12.00;99.90
28677;DHT22;15858;48.338;11.078;2022-10-28T08:02:16;12.10;99.90
28677;DHT22;15858;48.338;11.078;2022-10-28T08:04:43;12.10;99.90
28677;DHT22;15858;48.338;11.078;2022-10-28T08:07:11;12.10;99.90
28677;DHT22;15858;48.338;11.078;2022-10-28T08:09:38;12.20;99.90
28677;DHT22;15858;48.338;11.078;2022-10-28T08:12:06;12.30;99.90
28677;DHT22;15858;48.338;11.078;2022-10-28T08:14:33;12.30;99.90
28677;DHT22;15858;48.338;11.078;2022-10-28T08:17:00;12.40;99.90
28677;DHT22;15858;48.338;11.078;2022-10-28T08:19:27;12.40;99.90
28677;DHT22;15858;48.338;11.078;2022-10-28T08:21:54;12.50;99.90
28677;DHT22;15858;48.338;11.078;2022-10-28T08:24:20;12.50;99.90
28677;DHT22;15858;48.338;11.078;2022-10-28T08:26:47;12.60;99.90
28677;DHT22;15858;48.338;11.078;2022-10-28T08:29:14;12.60;99.90
28677;DHT22;15858;48.338;11.078;2022-10-28T08:31:40;12.70;99.90
28677;DHT22;15858;48.338;11.078;2022-10-28T08:34:07;12.70;99.90
28677;DHT22;15858;48.338;11.078;2022-10-28T08:36:34;12.80;99.90
28677;DHT22;15858;48.338;11.078;2022-10-28T08:39:01;12.90;99.90
28677;DHT22;15858;48.338;11.078;2022-10-28T08:44:34;12.90;99.90
28677;DHT22;15858;48.338;11.078;2022-10-28T08:49:55;13.00;99.90
28677;DHT22;15858;48.338;11.078;2022-10-28T08:52:24;13.10;99.90
28677;DHT22;15858;48.338;11.078;2022-10-28T08:54:56;13.20;99.90
28677;DHT22;15858;48.338;11.078;2022-10-28T08:57:39;13.30;99.90
28677;DHT22;15858;48.338;11.078;2022-10-28T09:00:15;13.40;99.90
28677;DHT22;15858;48.338;11.078;2022-10-28T09:05:33;13.50;99.90
28677;DHT22;15858;48.338;11.078;2022-10-28T09:08:01;13.70;99.90
28677;DHT22;15858;48.338;11.078;2022-10-28T09:14:10;13.80;99.90
28677;DHT22;15858;48.338;11.078;2022-10-28T09:16:46;13.90;99.90
28677;DHT22;15858;48.338;11.078;2022-10-28T09:28:36;14.40;99.90
28677;DHT22;15858;48.338;11.078;2022-10-28T09:31:52;14.40;99.90
28677;DHT22;15858;48.338;11.078;2022-10-28T09:39:44;14.70;99.90
28677;DHT22;15858;48.338;11.078;2022-10-28T09:42:19;14.70;99.90
28677;DHT22;15858;48.338;11.078;2022-10-28T09:44:52;14.70;99.90
28677;DHT22;15858;48.338;11.078;2022-10-28T09:47:29;14.80;99.90
28677;DHT22;15858;48.338;11.078;2022-10-28T09:49:59;14.80;99.90
28677;DHT22;15858;48.338;11.078;2022-10-28T09:52:35;14.80;99.90
28677;DHT22;15858;48.338;11.078;2022-10-28T09:55:18;14.90;99.90
28677;DHT22;15858;48.338;11.078;2022-10-28T09:57:45;15.00;99.90
28677;DHT22;15858;48.338;11.078;2022-10-28T10:00:13;15.10;99.90
28677;DHT22;15858;48.338;11.078;2022-10-28T10:02:40;15.20;99.90
28677;DHT22;15858;48.338;11.078;2022-10-28T10:05:11;15.20;99.90
28677;DHT22;15858;48.338;11.078;2022-10-28T10:07:47;15.30;99.90
28677;DHT22;15858;48.338;11.078;2022-10-28T10:10:23;15.40;99.90
28677;DHT22;15858;48.338;11.078;2022-10-28T10:12:51;15.50;99.90
28677;DHT22;15858;48.338;11.078;2022-10-28T10:15:29;15.50;99.90
28677;DHT22;15858;48.338;11.078;2022-10-28T10:18:02;15.60;99.90
28677;DHT22;15858;48.338;11.078;2022-10-28T10:21:03;15.60;99.90
28677;DHT22;15858;48.338;11.078;2022-10-28T10:23:35;15.70;99.90
28677;DHT22;15858;48.338;11.078;2022-10-28T10:26:08;15.80;99.90
28677;DHT22;15858;48.338;11.078;2022-10-28T10:28:43;16.00;99.90
28677;DHT22;15858;48.338;11.078;2022-10-28T10:31:25;16.00;99.90
28677;DHT22;15858;48.338;11.078;2022-10-28T10:33:55;16.00;99.90
28677;DHT22;15858;48.338;11.078;2022-10-28T10:36:23;16.10;99.90
28677;DHT22;15858;48.338;11.078;2022-10-28T10:38:52;16.20;99.90
28677;DHT22;15858;48.338;11.078;2022-10-28T10:41:39;16.20;99.90
28677;DHT22;15858;48.338;11.078;2022-10-28T10:49:23;16.50;99.90
28677;DHT22;15858;48.338;11.078;2022-10-28T10:54:18;16.80;99.90
28677;DHT22;15858;48.338;11.078;2022-10-28T10:56:45;16.90;99.90
28677;DHT22;15858;48.338;11.078;2022-10-28T10:59:29;16.90;99.90
28677;DHT22;15858;48.338;11.078;2022-10-28T11:01:57;16.90;99.90
28677;DHT22;15858;48.338;11.078;2022-10-28T11:04:25;17.00;99.90
28677;DHT22;15858;48.338;11.078;2022-10-28T11:06:55;17.00;99.90
28677;DHT22;15858;48.338;11.078;2022-10-28T11:09:27;17.00;99.90
28677;DHT22;15858;48.338;11.078;2022-10-28T11:11:55;17.10;99.90
28677;DHT22;15858;48.338;11.078;2022-10-28T11:14:25;17.20;99.90
28677;DHT22;15858;48.338;11.078;2022-10-28T11:16:54;17.20;99.90
28677;DHT22;15858;48.338;11.078;2022-10-28T11:19:30;17.20;99.90
28677;DHT22;15858;48.338;11.078;2022-10-28T11:27:38;17.30;99.90
28677;DHT22;15858;48.338;11.078;2022-10-28T11:30:13;17.30;99.90
28677;DHT22;15858;48.338;11.078;2022-10-28T11:35:56;17.40;99.90
28677;DHT22;15858;48.338;11.078;2022-10-28T11:40:58;17.50;99.90
28677;DHT22;15858;48.338;11.078;2022-10-28T11:49:30;17.60;99.90
28677;DHT22;15858;48.338;11.078;2022-10-28T12:00:42;17.80;99.90
28677;DHT22;15858;48.338;11.078;2022-10-28T12:03:51;17.90;99.90
28677;DHT22;15858;48.338;11.078;2022-10-28T12:06:35;17.90;99.90
28677;DHT22;15858;48.338;11.078;2022-10-28T12:09:20;18.00;99.90
28677;DHT22;15858;48.338;11.078;2022-10-28T12:12:23;18.00;99.90
28677;DHT22;15858;48.338;11.078;2022-10-28T12:15:16;18.00;99.90
28677;DHT22;15858;48.338;11.078;2022-10-28T12:20:24;18.50;99.90
28677;DHT22;15858;48.338;11.078;2022-10-28T12:22:56;18.70;99.90
28677;DHT22;15858;48.338;11.078;2022-10-28T12:25:29;18.90;99.90
28677;DHT22;15858;48.338;11.078;2022-10-28T12:28:01;19.00;99.90
28677;DHT22;15858;48.338;11.078;2022-10-28T12:30:32;19.10;99.90
28677;DHT22;15858;48.338;11.078;2022-10-28T12:33:13;19.10;99.90
28677;DHT22;15858;48.338;11.078;2022-10-28T12:35:50;19.30;99.90
28677;DHT22;15858;48.338;11.078;2022-10-28T12:38:33;19.60;99.90
28677;DHT22;15858;48.338;11.078;2022-10-28T12:47:17;20.00;99.90
28677;DHT22;15858;48.338;11.078;2022-10-28T12:51:49;20.20;99.90
28677;DHT22;15858;48.338;11.078;2022-10-28T12:54:47;20.30;99.90
28677;DHT22;15858;48.338;11.078;2022-10-28T12:57:21;20.30;99.90
28677;DHT22;15858;48.338;11.078;2022-10-28T13:00:22;20.40;99.90
28677;DHT22;15858;48.338;11.078;2022-10-28T13:03:10;20.40;99.90
28677;DHT22;15858;48.338;11.078;2022-10-28T13:17:16;19.60;99.90
28677;DHT22;15858;48.338;11.078;2022-10-28T13:25:47;19.50;99.90
28677;DHT22;15858;48.338;11.078;2022-10-28T13:28:19;19.50;99.90
28677;DHT22;15858;48.338;11.078;2022-10-28T13:30:54;19.50;99.90
28677;DHT22;15858;48.338;11.078;2022-10-28T13:33:24;19.40;99.90
28677;DHT22;15858;48.338;11.078;2022-10-28T13:35:53;19.40;99.90
28677;DHT22;15858;48.338;11.078;2022-10-28T13:38:25;19.40;99.90
28677;DHT22;15858;48.338;11.078;2022-10-28T13:49:34;19.40;99.90
28677;DHT22;15858;48.338;11.078;2022-10-28T13:57:32;19.50;99.90
28677;DHT22;15858;48.338;11.078;2022-10-28T14:00:05;19.50;99.90
28677;DHT22;15858;48.338;11.078;2022-10-28T14:02:59;19.50;99.90
28677;DHT22;15858;48.338;11.078;2022-10-28T14:08:03;19.30;99.90
28677;DHT22;15858;48.338;11.078;2022-10-28T14:10:56;19.30;99.90
28677;DHT22;15858;48.338;11.078;2022-10-28T14:13:24;19.30;99.90
28677;DHT22;15858;48.338;11.078;2022-10-28T14:19:02;19.20;99.90
28677;DHT22;15858;48.338;11.078;2022-10-28T14:21:45;19.30;99.90
28677;DHT22;15858;48.338;11.078;2022-10-28T14:24:37;19.20;99.90
28677;DHT22;15858;48.338;11.078;2022-10-28T14:35:18;19.20;99.90
28677;DHT22;15858;48.338;11.078;2022-10-28T14:41:05;19.20;99.90
28677;DHT22;15858;48.338;11.078;2022-10-28T14:49:11;19.20;99.90
28677;DHT22;15858;48.338;11.078;2022-10-28T14:51:39;19.20;99.90
28677;DHT22;15858;48.338;11.078;2022-10-28T14:54:15;19.10;99.90
28677;DHT22;15858;48.338;11.078;2022-10-28T14:56:43;19.10;99.90
28677;DHT22;15858;48.338;11.078;2022-10-28T15:02:00;19.00;99.90
28677;DHT22;15858;48.338;11.078;2022-10-28T15:04:30;19.00;99.90
28677;DHT22;15858;48.338;11.078;2022-10-28T15:06:57;19.00;99.90
28677;DHT22;15858;48.338;11.078;2022-10-28T15:09:29;18.90;99.90
28677;DHT22;15858;48.338;11.078;2022-10-28T15:12:00;18.90;99.90
28677;DHT22;15858;48.338;11.078;2022-10-28T15:14:32;18.90;99.90
28677;DHT22;15858;48.338;11.078;2022-10-28T15:17:09;18.90;99.90
28677;DHT22;15858;48.338;11.078;2022-10-28T15:19:37;18.80;99.90
28677;DHT22;15858;48.338;11.078;2022-10-28T15:22:13;18.80;99.90
28677;DHT22;15858;48.338;11.078;2022-10-28T15:24:40;18.70;99.90
28677;DHT22;15858;48.338;11.078;2022-10-28T15:27:12;18.70;99.90
28677;DHT22;15858;48.338;11.078;2022-10-28T15:29:40;18.70;99.90
28677;DHT22;15858;48.338;11.078;2022-10-28T15:32:23;18.60;99.90
28677;DHT22;15858;48.338;11.078;2022-10-28T15:34:50;18.50;99.90
28677;DHT22;15858;48.338;11.078;2022-10-28T15:37:18;18.40;99.90
28677;DHT22;15858;48.338;11.078;2022-10-28T15:39:45;18.40;99.90
28677;DHT22;15858;48.338;11.078;2022-10-28T15:42:37;18.30;99.90
28677;DHT22;15858;48.338;11.078;2022-10-28T15:45:06;18.20;99.90
28677;DHT22;15858;48.338;11.078;2022-10-28T15:47:43;18.10;99.90
28677;DHT22;15858;48.338;11.078;2022-10-28T15:52:44;17.90;99.90
28677;DHT22;15858;48.338;11.078;2022-10-28T15:57:49;17.80;99.90
28677;DHT22;15858;48.338;11.078;2022-10-28T16:02:56;17.60;99.90
28677;DHT22;15858;48.338;11.078;2022-10-28T16:08:03;17.40;99.90
28677;DHT22;15858;48.338;11.078;2022-10-28T16:10:34;17.40;99.90
28677;DHT22;15858;48.338;11.078;2022-10-28T16:13:04;17.40;99.90
28677;DHT22;15858;48.338;11.078;2022-10-28T16:15:44;17.30;99.90
28677;DHT22;15858;48.338;11.078;2022-10-28T16:18:13;17.20;99.90
28677;DHT22;15858;48.338;11.078;2022-10-28T16:20:39;17.10;99.90
28677;DHT22;15858;48.338;11.078;2022-10-28T16:23:15;17.10;99.90
28677;DHT22;15858;48.338;11.078;2022-10-28T16:25:42;16.90;99.90
28677;DHT22;15858;48.338;11.078;2022-10-28T16:28:20;16.80;99.90
28677;DHT22;15858;48.338;11.078;2022-10-28T16:30:50;16.70;99.90
28677;DHT22;15858;48.338;11.078;2022-10-28T16:33:17;16.60;99.90
28677;DHT22;15858;48.338;11.078;2022-10-28T16:35:44;16.50;99.90
28677;DHT22;15858;48.338;11.078;2022-10-28T16:38:11;16.50;99.90
28677;DHT22;15858;48.338;11.078;2022-10-28T16:40:38;16.40;99.90
28677;DHT22;15858;48.338;11.078;2022-10-28T16:43:22;16.30;99.90
28677;DHT22;15858;48.338;11.078;2022-10-28T16:45:51;16.30;99.90
28677;DHT22;15858;48.338;11.078;2022-10-28T16:48:19;16.20;99.90
28677;DHT22;15858;48.338;11.078;2022-10-28T16:50:53;16.10;99.90
28677;DHT22;15858;48.338;11.078;2022-10-28T16:53:21;16.10;99.90
28677;DHT22;15858;48.338;11.078;2022-10-28T16:55:48;16.00;99.90
28677;DHT22;15858;48.338;11.078;2022-10-28T16:58:15;16.00;99.90
28677;DHT22;15858;48.338;11.078;2022-10-28T17:00:43;16.00;99.90
28677;DHT22;15858;48.338;11.078;2022-10-28T17:03:12;16.00;99.90
28677;DHT22;15858;48.338;11.078;2022-10-28T17:05:39;16.00;99.90
28677;DHT22;15858;48.338;11.078;2022-10-28T17:08:06;16.00;99.90
28677;DHT22;15858;48.338;11.078;2022-10-28T17:10:35;16.00;99.90
28677;DHT22;15858;48.338;11.078;2022-10-28T17:13:02;15.90;99.90
28677;DHT22;15858;48.338;11.078;2022-10-28T17:15:29;15.90;99.90
28677;DHT22;15858;48.338;11.078;2022-10-28T17:17:55;15.90;99.90
28677;DHT22;15858;48.338;11.078;2022-10-28T17:20:22;15.90;99.90
28677;DHT22;15858;48.338;11.078;2022-10-28T17:22:49;15.80;99.90
28677;DHT22;15858;48.338;11.078;2022-10-28T17:25:15;15.80;99.90
28677;DHT22;15858;48.338;11.078;2022-10-28T17:27:42;15.70;99.90
28677;DHT22;15858;48.338;11.078;2022-10-28T17:30:09;15.60;99.90
28677;DHT22;15858;48.338;11.078;2022-10-28T17:32:36;15.60;99.90
28677;DHT22;15858;48.338;11.078;2022-10-28T17:35:03;15.60;99.90
28677;DHT22;15858;48.338;11.078;2022-10-28T17:37:30;15.60;99.90
28677;DHT22;15858;48.338;11.078;2022-10-28T17:39:56;15.60;99.90
28677;DHT22;15858;48.338;11.078;2022-10-28T17:42:23;15.50;99.90
28677;DHT22;15858;48.338;11.078;2022-10-28T17:44:49;15.50;99.90
28677;DHT22;15858;48.338;11.078;2022-10-28T17:47:16;15.40;99.90
28677;DHT22;15858;48.338;11.078;2022-10-28T17:49:43;15.40;99.90
28677;DHT22;15858;48.338;11.078;2022-10-28T17:52:09;15.40;99.90
28677;DHT22;15858;48.338;11.078;2022-10-28T17:54:36;15.30;99.90
28677;DHT22;15858;48.338;11.078;2022-10-28T17:57:03;15.40;99.90
28677;DHT22;15858;48.338;11.078;2022-10-28T17:59:29;15.40;99.90
28677;DHT22;15858;48.338;11.078;2022-10-28T18:01:56;15.40;99.90
28677;DHT22;15858;48.338;11.078;2022-10-28T18:04:23;15.40;99.90
28677;DHT22;15858;48.338;11.078;2022-10-28T18:06:50;15.40;99.90
28677;DHT22;15858;48.338;11.078;2022-10-28T18:09:16;15.30;99.90
28677;DHT22;15858;48.338;11.078;2022-10-28T18:11:43;15.30;99.90
28677;DHT22;15858;48.338;11.078;2022-10-28T18:14:09;15.40;99.90
28677;DHT22;15858;48.338;11.078;2022-10-28T18:16:36;15.30;99.90
28677;DHT22;15858;48.338;11.078;2022-10-28T18:19:04;15.30;99.90
28677;DHT22;15858;48.338;11.078;2022-10-28T18:21:31;15.30;99.90
28677;DHT22;15858;48.338;11.078;2022-10-28T18:23:58;15.30;99.90
28677;DHT22;15858;48.338;11.078;2022-10-28T18:26:25;15.20;99.90
28677;DHT22;15858;48.338;11.078;2022-10-28T18:28:51;15.20;99.90
28677;DHT22;15858;48.338;11.078;2022-10-28T18:31:19;15.10;99.90
28677;DHT22;15858;48.338;11.078;2022-10-28T18:33:46;15.10;99.90
28677;DHT22;15858;48.338;11.078;2022-10-28T18:36:18;15.10;99.90
28677;DHT22;15858;48.338;11.078;2022-10-28T18:38:45;15.10;99.90